createdAt,value
2022-10-03T00:01:48.475Z,10.33
2022-10-03T00:06:25.740Z,10.21
2022-10-03T00:10:47.262Z,10.24
2022-10-03T00:15:37.074Z,9.99
2022-10-03T00:20:27.634Z,10.03
2022-10-03T00:25:00.090Z,10.02
2022-10-03T00:29:40.987Z,9.96
2022-10-03T00:34:31.007Z,9.79
2022-10-03T00:39:01.169Z,9.77
2022-10-03T00:43:51.843Z,9.59
2022-10-03T00:48:41.831Z,9.35
2022-10-03T00:53:12.494Z,9.15
2022-10-03T00:57:34.706Z,9.01
2022-10-03T01:01:49.552Z,9.00
2022-10-03T01:06:47.570Z,8.80
2022-10-03T01:11:08.905Z,8.70
2022-10-03T01:15:46.180Z,8.76
2022-10-03T01:20:17.860Z,8.73
2022-10-03T01:24:59.273Z,8.81
2022-10-03T01:29:42.140Z,8.94
2022-10-03T01:34:08.118Z,9.26
2022-10-03T01:38:34.665Z,9.32
2022-10-03T01:43:15.469Z,9.49
2022-10-03T01:47:52.252Z,9.48
2022-10-03T01:52:27.567Z,9.57
2022-10-03T01:56:55.029Z,9.72
2022-10-03T02:01:10.196Z,9.85
2022-10-03T02:05:56.033Z,9.87
2022-10-03T02:10:46.845Z,9.84
2022-10-03T02:15:08.863Z,9.74
2022-10-03T02:19:31.905Z,9.83
2022-10-03T02:23:47.297Z,9.69
2022-10-03T02:28:45.740Z,9.72
2022-10-03T02:33:33.956Z,9.75
2022-10-03T02:38:13.942Z,9.80
2022-10-03T02:42:54.086Z,9.75
2022-10-03T02:47:43.797Z,9.58
2022-10-03T02:52:11.345Z,9.37
2022-10-03T02:57:01.241Z,9.19
2022-10-03T03:01:44.536Z,9.01
2022-10-03T03:06:30.792Z,8.86
2022-10-03T03:11:09.043Z,8.65
2022-10-03T03:16:02.352Z,8.50
2022-10-03T03:20:24.550Z,8.41
2022-10-03T03:24:56.344Z,8.39
2022-10-03T03:29:14.328Z,8.38
2022-10-03T03:33:53.639Z,8.36
2022-10-03T03:38:05.869Z,8.26
2022-10-03T03:42:46.021Z,8.16
2022-10-03T03:47:22.557Z,8.08
2022-10-03T03:51:51.441Z,8.03
2022-10-03T03:56:22.665Z,8.03
2022-10-03T04:01:02.508Z,8.09
2022-10-03T04:05:45.456Z,8.03
2022-10-03T04:10:03.644Z,7.92
2022-10-03T04:14:30.409Z,7.83
2022-10-03T04:19:05.039Z,7.82
2022-10-03T04:23:35.404Z,7.67
2022-10-03T04:28:27.408Z,7.75
2022-10-03T04:33:05.179Z,7.85
2022-10-03T04:37:35.968Z,7.86
2022-10-03T04:42:19.738Z,7.95
2022-10-03T04:46:53.737Z,7.97
2022-10-03T04:51:17.663Z,7.88
2022-10-03T04:55:54.302Z,7.90
2022-10-03T05:00:44.925Z,7.86
2022-10-03T05:05:20.518Z,7.85
2022-10-03T05:09:39.218Z,7.82
2022-10-03T05:14:02.047Z,7.74
2022-10-03T05:18:27.015Z,7.67
2022-10-03T05:23:20.133Z,7.67
2022-10-03T05:28:07.972Z,7.57
2022-10-03T05:32:28.519Z,7.52
2022-10-03T05:37:08.667Z,7.46
2022-10-03T05:41:30.092Z,7.36
2022-10-03T05:45:51.237Z,7.34
2022-10-03T05:50:28.510Z,7.42
2022-10-03T05:54:54.754Z,7.42
2022-10-03T05:59:38.112Z,7.43
2022-10-03T06:04:23.925Z,7.52
2022-10-03T06:08:53.822Z,7.84
2022-10-03T06:13:20.272Z,8.30
2022-10-03T06:17:32.483Z,8.74
2022-10-03T06:22:09.005Z,9.05
2022-10-03T06:26:38.281Z,9.42
2022-10-03T06:31:42.158Z,9.76
2022-10-03T06:36:14.566Z,9.90
2022-10-03T06:41:04.217Z,10.21
2022-10-03T06:45:22.196Z,10.25
2022-10-03T06:49:43.674Z,10.31
2022-10-03T06:54:14.367Z,10.56
2022-10-03T06:58:41.536Z,10.81
2022-10-03T07:03:17.143Z,10.76
2022-10-03T07:07:58.165Z,10.68
2022-10-03T07:12:48.178Z,10.87
2022-10-03T07:17:09.287Z,11.11
2022-10-03T07:21:31.968Z,11.33
2022-10-03T07:25:56.572Z,11.54
2022-10-03T07:30:12.101Z,11.58
2022-10-03T07:35:05.482Z,11.84
2022-10-03T07:39:39.736Z,12.02
2022-10-03T07:44:09.319Z,11.92
2022-10-03T07:48:33.769Z,11.75
2022-10-03T07:53:23.722Z,11.42
2022-10-03T07:58:20.747Z,12.19
2022-10-03T08:02:51.472Z,12.69
2022-10-03T08:07:29.387Z,12.60
2022-10-03T08:12:16.776Z,12.96
2022-10-03T08:16:43.826Z,12.79
2022-10-03T08:20:59.196Z,12.47
2022-10-03T08:25:28.142Z,12.48
2022-10-03T08:29:43.428Z,12.69
2022-10-03T08:34:20.764Z,12.52
2022-10-03T08:39:06.892Z,12.72
2022-10-03T08:43:40.863Z,12.50
2022-10-03T08:48:11.464Z,12.32
2022-10-03T08:53:02.895Z,12.69
2022-10-03T08:57:39.720Z,13.10
2022-10-03T09:02:16.916Z,12.91
2022-10-03T09:07:12.328Z,13.15
2022-10-03T09:11:46.483Z,13.40
2022-10-03T09:16:36.567Z,13.47
2022-10-03T09:21:10.331Z,13.68
2022-10-03T09:26:01.032Z,13.78
2022-10-03T09:30:31.835Z,14.16
2022-10-03T09:35:07.220Z,14.04
2022-10-03T09:39:39.998Z,14.54
2022-10-03T09:44:10.619Z,14.69
2022-10-03T09:48:50.651Z,15.71
2022-10-03T09:53:12.228Z,16.58
2022-10-03T09:57:39.783Z,16.66
2022-10-03T10:02:04.204Z,15.14
2022-10-03T10:06:56.420Z,15.39
2022-10-03T10:11:17.634Z,15.78
2022-10-03T10:15:39.085Z,17.32
2022-10-03T10:20:12.606Z,18.66
2022-10-03T10:24:55.727Z,18.79
2022-10-03T10:29:36.171Z,16.85
2022-10-03T10:34:26.417Z,15.42
2022-10-03T10:39:06.750Z,16.03
2022-10-03T10:43:50.416Z,16.77
2022-10-03T10:48:09.024Z,16.81
2022-10-03T10:52:24.080Z,16.90
2022-10-03T10:56:36.457Z,16.20
2022-10-03T11:01:20.626Z,16.54
2022-10-03T11:05:57.551Z,16.04
2022-10-03T11:10:32.423Z,16.56
2022-10-03T11:14:51.345Z,16.58
2022-10-03T11:19:33.016Z,16.01
2022-10-03T11:24:27.184Z,17.00
2022-10-03T11:29:04.163Z,17.35
2022-10-03T11:33:54.228Z,18.26
2022-10-03T11:38:31.016Z,16.95
2022-10-03T11:42:43.231Z,17.23
2022-10-03T11:47:10.946Z,16.52
2022-10-03T11:51:40.210Z,17.16
2022-10-03T11:55:52.390Z,17.53
2022-10-03T12:00:21.543Z,17.37
2022-10-03T12:04:51.985Z,16.98
2022-10-03T12:09:26.485Z,16.21
2022-10-03T12:13:44.485Z,15.03
2022-10-03T12:18:14.201Z,14.68
2022-10-03T12:22:29.210Z,14.45
2022-10-03T12:27:05.137Z,14.67
2022-10-03T12:31:40.859Z,14.48
2022-10-03T12:36:07.872Z,14.50
2022-10-03T12:40:28.414Z,14.33
2022-10-03T12:44:51.762Z,14.48
2022-10-03T12:49:20.845Z,14.29
2022-10-03T12:53:39.440Z,14.53
2022-10-03T12:57:59.939Z,15.41
2022-10-03T13:02:24.851Z,16.56
2022-10-03T13:07:02.954Z,16.92
2022-10-03T13:11:52.209Z,16.49
2022-10-03T13:16:05.120Z,17.53
2022-10-03T13:20:34.289Z,17.68
2022-10-03T13:24:57.643Z,17.16
2022-10-03T13:29:26.090Z,16.07
2022-10-03T13:33:47.371Z,14.81
2022-10-03T13:38:18.196Z,14.32
2022-10-03T13:42:53.081Z,14.13
2022-10-03T13:47:26.029Z,14.10
2022-10-03T13:51:51.998Z,14.83
2022-10-03T13:56:33.436Z,14.86
2022-10-03T14:01:08.231Z,15.59
2022-10-03T14:05:35.769Z,15.62
2022-10-03T14:10:05.969Z,16.25
2022-10-03T14:14:35.009Z,16.54
2022-10-03T14:18:50.080Z,16.72
2022-10-03T14:23:23.146Z,15.87
2022-10-03T14:27:44.232Z,15.97
2022-10-03T14:32:04.497Z,15.65
2022-10-03T14:36:34.851Z,15.65
2022-10-03T14:40:57.277Z,15.57
2022-10-03T14:45:18.647Z,15.28
2022-10-03T14:49:53.679Z,15.13
2022-10-03T14:54:26.545Z,14.56
2022-10-03T14:58:46.845Z,14.45
2022-10-03T15:03:14.473Z,14.19
2022-10-03T15:07:54.638Z,14.38
2022-10-03T15:12:43.981Z,14.30
2022-10-03T15:16:58.641Z,14.35
2022-10-03T15:21:17.049Z,14.33
2022-10-03T15:25:39.748Z,14.21
2022-10-03T15:29:57.523Z,14.07
2022-10-03T15:34:26.574Z,13.93
2022-10-03T15:38:50.368Z,13.92
2022-10-03T15:43:39.003Z,13.79
2022-10-03T15:47:52.214Z,13.70
2022-10-03T15:52:17.974Z,13.57
2022-10-03T15:56:39.097Z,13.49
2022-10-03T16:01:02.753Z,13.27
2022-10-03T16:05:21.401Z,13.14
2022-10-03T16:10:06.152Z,12.97
2022-10-03T16:14:34.620Z,12.87
2022-10-03T16:19:25.905Z,12.68
2022-10-03T16:23:46.144Z,12.63
2022-10-03T16:28:05.355Z,12.50
2022-10-03T16:32:22.473Z,12.33
2022-10-03T16:36:44.469Z,11.99
2022-10-03T16:41:06.946Z,11.95
2022-10-03T16:45:34.716Z,11.90
2022-10-03T16:50:19.388Z,11.65
2022-10-03T16:54:32.509Z,11.32
2022-10-03T16:58:51.548Z,10.92
2022-10-03T17:03:07.413Z,10.63
2022-10-03T17:07:24.452Z,10.49
2022-10-03T17:11:39.151Z,10.36
2022-10-03T17:16:01.074Z,10.03
2022-10-03T17:20:17.417Z,9.81
2022-10-03T17:24:39.794Z,9.64
2022-10-03T17:29:11.323Z,9.53
2022-10-03T17:33:29.283Z,9.37
2022-10-03T17:38:24.609Z,9.18
2022-10-03T17:42:56.241Z,9.14
2022-10-03T17:47:27.020Z,8.98
2022-10-03T17:51:43.650Z,8.77
2022-10-03T17:56:00.301Z,8.70
2022-10-03T18:00:22.812Z,8.54
2022-10-03T18:04:43.524Z,8.47
2022-10-03T18:09:00.398Z,8.46
2022-10-03T18:13:43.989Z,8.37
2022-10-03T18:18:14.589Z,8.31
2022-10-03T18:22:40.510Z,8.16
2022-10-03T18:27:07.809Z,8.09
2022-10-03T18:31:25.586Z,8.09
2022-10-03T18:35:38.614Z,7.89
2022-10-03T18:39:54.660Z,7.82
2022-10-03T18:44:07.234Z,7.77
2022-10-03T18:49:03.104Z,7.77
2022-10-03T18:53:38.011Z,7.71
2022-10-03T18:58:12.331Z,7.63
2022-10-03T19:02:36.476Z,7.51
2022-10-03T19:06:54.003Z,7.44
2022-10-03T19:11:18.487Z,7.44
2022-10-03T19:16:07.467Z,7.37
2022-10-03T19:20:34.382Z,7.28
2022-10-03T19:24:59.095Z,7.19
2022-10-03T19:29:18.933Z,7.14
2022-10-03T19:33:33.618Z,7.10
2022-10-03T19:37:50.608Z,7.06
2022-10-03T19:42:28.456Z,7.02
2022-10-03T19:47:11.337Z,7.00
2022-10-03T19:51:26.814Z,6.93
2022-10-03T19:55:41.648Z,6.84
2022-10-03T19:59:58.670Z,6.77
2022-10-03T20:04:11.906Z,6.72
2022-10-03T20:08:39.685Z,6.66
2022-10-03T20:12:53.692Z,6.61
2022-10-03T20:17:20.214Z,6.62
2022-10-03T20:21:34.311Z,6.69
2022-10-03T20:26:15.779Z,6.64
2022-10-03T20:30:44.275Z,6.54
2022-10-03T20:34:59.285Z,6.56
2022-10-03T20:39:17.566Z,6.58
2022-10-03T20:43:42.430Z,6.51
2022-10-03T20:48:05.732Z,6.47
2022-10-03T20:52:21.444Z,6.32
2022-10-03T20:56:45.298Z,6.23
2022-10-03T21:01:28.105Z,6.20
2022-10-03T21:05:47.595Z,6.16
2022-10-03T21:10:25.561Z,6.11
2022-10-03T21:14:46.941Z,6.05
2022-10-03T21:19:05.118Z,6.06
2022-10-03T21:23:23.749Z,5.97
2022-10-03T21:27:36.390Z,5.92
2022-10-03T21:31:56.354Z,5.79
2022-10-03T21:36:17.633Z,5.82
2022-10-03T21:40:53.976Z,5.80
2022-10-03T21:45:44.905Z,5.72
2022-10-03T21:50:06.877Z,5.69
2022-10-03T21:54:48.435Z,5.67
2022-10-03T21:59:22.551Z,5.68
2022-10-03T22:03:48.807Z,5.71
2022-10-03T22:08:13.776Z,5.67
2022-10-03T22:12:29.450Z,5.58
2022-10-03T22:17:10.258Z,5.51
2022-10-03T22:21:27.667Z,5.53
2022-10-03T22:26:03.795Z,5.48
2022-10-03T22:30:21.530Z,5.45
2022-10-03T22:34:44.873Z,5.36
2022-10-03T22:38:57.503Z,5.30
2022-10-03T22:43:11.714Z,5.26
2022-10-03T22:47:27.962Z,5.20
2022-10-03T22:51:41.961Z,5.22
2022-10-03T22:55:59.516Z,5.19
2022-10-03T23:00:24.146Z,5.22
2022-10-03T23:04:44.111Z,5.11
2022-10-03T23:09:15.252Z,5.11
2022-10-03T23:13:44.574Z,5.08
2022-10-03T23:18:11.877Z,5.08
2022-10-03T23:22:28.812Z,5.03
2022-10-03T23:27:03.505Z,4.95
2022-10-03T23:31:54.143Z,4.92
2022-10-03T23:36:18.788Z,4.88
2022-10-03T23:40:31.227Z,4.86
2022-10-03T23:44:48.271Z,4.84
2022-10-03T23:49:02.816Z,4.84
2022-10-03T23:53:30.920Z,4.78
2022-10-03T23:57:44.079Z,4.79
